Latest Coastal Weather Observations for Weipa

IDQ60701

Issued at 11:42 am EST Wednesday 28 September 2016 (issued every 10 minutes, with the page automatically refreshed every 10 minutes)

About coastal observations | Map of coastal stations | Coastal observations for QLD | Marine services | Other Formats
Station Details ID: 027045 Name: WEIPA AERO Lat: -12.68 Lon: 141.92 Height: 17.96 m
Data from the previous 72 hours. | See also: Recent months at Weipa
Date/Time
EST
Temp
°C
Wind Pressure Rain since
9am
mm
Weather Cloud Vis
km
Sea
Height
m
Swell
Dir  Spd
kts
Gust
kts
hPa Trend Height
m
Period
s
Dir
28/11:30am 33.0 E 8 14 1010.4 - 0.0 - - 10 - - - -
28/11:00am 31.5 E 10 17 1011.0 - 0.0 - - 10 - - - -
28/10:30am 30.7 E 9 17 1011.4 - 0.0 - - 10 - - - -
28/10:00am 29.9 E 11 16 1011.5 - 0.0 - - 10 - - - -
28/09:30am 29.1 E 10 15 1011.9 - 0.0 - - 10 - - - -
28/09:00am 28.1 ESE 11 16 1012.1 F 0.0 Haze Partly cloudy 30 - - - -
28/08:30am 27.5 SE 7 14 1012.4 - 0.0 - - 10 - - - -
28/08:00am 26.4 SSE 5 8 1012.5 - 0.0 - - 10 - - - -
28/07:30am 25.1 SSE 4 6 1012.1 - 0.0 - - 10 - - - -
28/07:00am 24.2 SE 2 3 1011.7 - 0.0 - - 10 - - - -
28/06:30am 23.4 SE 2 3 1011.4 - 0.0 - - 10 - - - -
28/06:00am 23.7 E 2 2 1011.0 - 0.0 - Mostly cloudy 10 - - - -
28/05:30am 23.8 SE 1 2 1010.9 - 0.0 - Partly cloudy 10 - - - -
28/05:00am 23.9 SE 3 4 1010.7 - 0.0 - Partly cloudy 10 - - - -
28/04:30am 23.5 ESE 3 4 1010.5 - 0.0 - - 10 - - - -
28/04:00am 22.9 ESE 4 5 1010.1 - 0.0 - - 10 - - - -
28/03:30am 22.9 E 3 5 1010.0 - 0.0 - - 10 - - - -
28/03:00am 22.3 ENE 2 3 1009.6 - 0.0 - - 10 - - - -
28/02:30am 22.9 SE 1 2 1009.9 - 0.0 - - 10 - - - -
28/02:00am 23.4 SE 1 3 1010.3 - 0.0 - - 10 - - - -
28/01:30am 23.5 SE 2 3 1010.7 - 0.0 - - 10 - - - -
28/01:00am 23.8 SE 2 3 1010.9 - 0.0 - - 10 - - - -
28/12:30am 24.5 SE 1 2 1011.1 - 0.0 - - 10 - - - -
28/12:00am 25.1 E 2 3 1011.1 - 0.0 - - 10 - - - -
 
Date/Time
EST
Temp
°C
Wind Pressure Rain since
9am
mm
Weather Cloud Vis
km
Sea
Height
m
Swell
Dir  Spd
kts
Gust
kts
hPa Trend Height
m
Period
s
Dir
27/11:30pm 25.2 CALM 0 0 1011.5 - 0.0 - - 10 - - - -
27/11:00pm 25.5 CALM 0 0 1011.4 - 0.0 - - 10 - - - -
27/10:30pm 25.6 CALM 0 0 1011.4 - 0.0 - - 10 - - - -
27/10:00pm 26.1 CALM 0 0 1011.2 - 0.0 - - 10 - - - -
27/09:30pm 26.2 CALM 0 0 1011.0 - 0.0 - - 10 - - - -
27/09:00pm 26.8 CALM 0 0 1010.6 - 0.0 - - 10 - - - -
27/08:30pm 27.4 W 1 2 1010.2 - 0.0 - Partly cloudy 10 - - - -
27/08:00pm 27.4 W 1 3 1009.6 - 0.0 - - 10 - - - -
27/07:30pm 27.4 W 3 4 1009.1 - 0.0 - - 10 - - - -
27/07:00pm 27.4 WNW 4 8 1008.7 - 0.0 - - 10 - - - -
27/06:30pm 27.8 WNW 6 8 1008.2 - 0.0 - - 10 - - - -
27/06:00pm 28.5 WNW 8 12 1007.8 - 0.0 - - 10 - - - -
27/05:30pm 29.1 W 8 14 1007.5 - 0.0 - - 10 - - - -
27/05:00pm 29.7 WNW 11 17 1007.1 - 0.0 - - 10 - - - -
27/04:30pm 30.8 W 11 18 1006.7 - 0.0 - - 10 - - - -
27/04:00pm 33.2 W 9 13 1006.3 - 0.0 - - 10 - - - -
27/03:30pm 33.3 W 9 12 1006.4 - 0.0 - - 10 - - - -
27/03:00pm 34.0 W 10 13 1006.4 - 0.0 - - 10 - - - -
27/02:30pm 38.0 NNE 3 6 1006.8 - 0.0 - - 10 - - - -
27/02:00pm 36.9 E 11 17 1007.2 - 0.0 - - 10 - - - -
27/01:30pm 36.2 ENE 9 14 1007.8 - 0.0 - - 10 - - - -
27/01:00pm 35.9 ESE 12 21 1008.5 - 0.0 - - 10 - - - -
27/12:30pm 35.4 SE 10 15 1009.3 - 0.0 - - 10 - - - -
27/12:00pm 34.1 E 10 14 1009.8 - 0.0 - - 10 - - - -
27/11:30am 33.3 SE 6 11 1010.6 - 0.0 - - 10 - - - -
27/11:00am 32.5 E 9 16 1010.9 - 0.0 - - 10 - - - -
27/10:30am 31.3 ESE 11 15 1011.4 - 0.0 - - 10 - - - -
27/10:00am 30.1 ESE 11 14 1011.7 - 0.0 - - 10 - - - -
27/09:30am 29.1 E 9 14 1011.9 - 0.0 - Partly cloudy 10 - - - -
27/09:00am 27.8 ENE 8 14 1012.0 F 0.0 Haze Partly cloudy 30 - - - -
27/08:30am 27.4 ESE 7 9 1012.2 - 0.0 - - 10 - - - -
27/08:00am 26.3 ESE 4 7 1011.8 - 0.0 - - 10 - - - -
27/07:30am 25.0 SSE 3 5 1011.6 - 0.0 - - 10 - - - -
27/07:00am 24.3 SE 2 4 1011.1 - 0.0 - - 10 - - - -
27/06:30am 23.2 CALM 0 1 1011.0 - 0.0 - - 10 - - - -
27/06:00am 23.3 CALM 0 0 1010.6 - 0.0 - Mostly cloudy 10 - - - -
27/05:30am 22.9 CALM 0 0 1010.6 - 0.0 - Partly cloudy 10 - - - -
27/05:00am 23.1 CALM 0 0 1009.9 - 0.0 - - 10 - - - -
27/04:30am 23.4 E 2 3 1009.6 - 0.0 - - 10 - - - -
27/04:00am 23.6 E 3 4 1009.6 - 0.0 - - 10 - - - -
27/03:30am 23.6 ESE 2 3 1009.5 - 0.0 - - 10 - - - -
27/03:00am 24.0 ESE 3 4 1009.7 - 0.0 - - 10 - - - -
27/02:30am 24.0 ESE 3 4 1009.9 - 0.0 - - 10 - - - -
27/02:00am 24.2 E 2 3 1010.2 - 0.0 - - 10 - - - -
27/01:30am 24.3 CALM 0 0 1010.6 - 0.0 - - 10 - - - -
27/01:00am 25.0 ENE 2 2 1011.2 - 0.0 - - 10 - - - -
27/12:30am 25.4 ENE 2 2 1011.5 - 0.0 - - 10 - - - -
27/12:00am 25.6 ENE 3 4 1011.4 - 0.0 - - 10 - - - -
 
Date/Time
EST
Temp
°C
Wind Pressure Rain since
9am
mm
Weather Cloud Vis
km
Sea
Height
m
Swell
Dir  Spd
kts
Gust
kts
hPa Trend Height
m
Period
s
Dir
26/11:30pm 25.7 NE 3 4 1011.7 - 0.0 - - 9 - - - -
26/11:00pm 26.0 NE 2 3 1012.1 - 0.0 - - 8 - - - -
26/10:30pm 26.1 NE 3 4 1011.9 - 0.0 - - 9 - - - -
26/10:00pm 26.3 NE 3 4 1011.7 - 0.0 - - 10 - - - -
26/09:30pm 26.3 NE 3 4 1011.6 - 0.0 - - 10 - - - -
26/09:00pm 27.1 CALM 0 0 1011.2 - 0.0 - - 10 - - - -
26/08:30pm 27.7 NNW 2 3 1011.0 - 0.0 - - 10 - - - -
26/08:00pm 27.6 WNW 3 3 1010.5 - 0.0 - - 10 - - - -
26/07:30pm 27.8 WNW 3 5 1009.9 - 0.0 - - 10 - - - -
26/07:00pm 28.0 W 6 9 1009.4 - 0.0 - - 10 - - - -
26/06:30pm 28.3 W 6 10 1008.8 - 0.0 - - 10 - - - -
26/06:00pm 29.0 W 7 12 1008.1 - 0.0 - - 10 - - - -
26/05:30pm 29.5 W 9 14 1007.8 - 0.0 - - 10 - - - -
26/05:00pm 29.9 W 11 17 1007.4 - 0.0 - Partly cloudy 10 - - - -
26/04:30pm 29.9 W 12 19 1007.2 - 0.0 - Partly cloudy 10 - - - -
26/04:00pm 30.8 W 11 18 1006.9 - 0.0 - Partly cloudy 10 - - - -
26/03:30pm 32.4 W 9 17 1006.7 - 0.0 - Partly cloudy 10 - - - -
26/03:00pm 35.3 W 7 12 1006.6 - 0.0 - Partly cloudy 10 - - - -
26/02:30pm 36.0 SSE 6 13 1006.9 - 0.0 - - 10 - - - -
26/02:00pm 36.6 ENE 5 12 1007.5 - 0.0 - - 10 - - - -
26/01:30pm 35.6 SE 9 14 1007.8 - 0.0 - Partly cloudy 10 - - - -
26/01:00pm 34.7 ENE 5 11 1008.3 - 0.0 - Partly cloudy 10 - - - -
26/12:30pm 33.6 E 5 12 1009.2 - 0.0 - Partly cloudy 10 - - - -
26/12:00pm 33.8 SE 6 13 1009.6 - 0.0 - - 10 - - - -
26/11:30am 32.1 NE 6 11 1010.3 - 0.0 - - 10 - - - -
26/11:00am 31.3 NE 5 14 1010.7 - 0.0 - - 10 - - - -
26/10:30am 30.6 ESE 7 12 1011.1 - 0.0 - - 10 - - - -
26/10:00am 29.9 ESE 8 12 1011.4 - 0.0 - - 10 - - - -
26/09:30am 29.7 E 9 14 1011.6 - 0.0 - - 10 - - - -
26/09:00am 28.9 E 6 10 1011.6 F 0.0 Haze Clear 30 - - - -
26/08:30am 28.0 E 6 9 1011.8 - 0.0 - - 10 - - - -
26/08:00am 26.8 E 4 7 1011.5 - 0.0 - - 10 - - - -
26/07:30am 25.1 E 3 4 1011.2 - 0.0 - - 10 - - - -
26/07:00am 23.8 ESE 2 3 1010.8 - 0.0 - - 10 - - - -
26/06:30am 23.3 E 3 3 1010.4 - 0.0 - - 10 - - - -
26/06:00am 23.6 E 3 5 1010.1 - 0.0 - - 10 - - - -
26/05:30am 23.8 E 3 4 1010.1 - 0.0 - - 10 - - - -
26/05:00am 23.7 E 2 3 1009.8 - 0.0 - Cloudy 10 - - - -
26/04:30am 23.7 E 2 3 1009.6 - 0.0 - - 10 - - - -
26/04:00am 24.0 ENE 2 3 1009.5 - 0.0 - - 10 - - - -
26/03:30am 24.0 NE 3 4 1009.5 - 0.0 - Partly cloudy 10 - - - -
26/03:00am 24.2 ENE 3 4 1009.5 - 0.0 - - 10 - - - -
26/02:30am 24.4 NE 3 4 1009.8 - 0.0 - - 10 - - - -
26/02:00am 24.8 ENE 3 5 1009.9 - 0.0 - - 10 - - - -
26/01:30am 24.9 NE 3 4 1010.1 - 0.0 - - 10 - - - -
26/01:00am 25.1 ENE 4 4 1010.4 - 0.0 - - 9 - - - -
26/12:30am 25.0 NE 1 3 1010.6 - 0.0 - - 9 - - - -
26/12:00am 25.3 CALM 0 0 1010.6 - 0.0 - - 10 - - - -
 
Date/Time
EST
Temp
°C
Wind Pressure Rain since
9am
mm
Weather Cloud Vis
km
Sea
Height
m
Swell
Dir  Spd
kts
Gust
kts
hPa Trend Height
m
Period
s
Dir
25/11:30pm 25.6 CALM 0 0 1011.1 - 0.0 - - 10 - - - -
25/11:00pm 26.0 CALM 0 0 1011.1 - 0.0 - - 10 - - - -
25/10:30pm 26.4 CALM 0 0 1011.1 - 0.0 - - 10 - - - -
25/10:00pm 26.7 WNW 1 2 1011.1 - 0.0 - - 10 - - - -
25/09:30pm 27.1 W 2 3 1010.8 - 0.0 - - 10 - - - -
25/09:00pm 27.2 SW 3 6 1010.4 - 0.0 - - 10 - - - -
25/08:30pm 27.4 SW 3 6 1010.1 - 0.0 - - 10 - - - -
25/08:00pm 27.5 W 3 5 1009.4 - 0.0 - - 10 - - - -
25/07:30pm 27.7 W 5 8 1008.8 - 0.0 - - 10 - - - -
25/07:00pm 28.0 W 5 9 1008.3 - 0.0 - - 10 - - - -
25/06:30pm 28.5 W 6 11 1007.5 - 0.0 - Partly cloudy 10 - - - -
25/06:00pm 29.6 W 8 13 1006.7 - 0.0 - Mostly clear 10 - - - -
25/05:30pm 32.4 W 5 10 1006.2 - 0.0 - - 10 - - - -
25/05:00pm 36.6 E 7 11 1005.5 - 0.0 - - 10 - - - -
25/04:30pm 36.7 E 7 12 1005.4 - 0.0 - Partly cloudy 10 - - - -
25/04:00pm 35.6 ESE 9 12 1005.4 - 0.0 - Partly cloudy 10 - - - -
25/03:30pm 35.8 E 9 18 1005.6 - 0.0 - - 10 - - - -
25/03:00pm 36.2 NE 6 14 1005.8 - 0.0 - Mostly clear 10 - - - -
25/02:30pm 35.2 ESE 6 14 1006.2 - 0.0 - - 10 - - - -
25/02:00pm 35.2 NE 9 18 1006.7 - 0.0 - - 10 - - - -
25/01:30pm 34.2 ENE 6 13 1007.4 - 0.0 - - 10 - - - -
25/01:00pm 34.2 ENE 7 12 1008.1 - 0.0 - - 10 - - - -
25/12:30pm 33.0 SE 5 11 1008.8 - 0.0 - - 10 - - - -
25/12:00pm 32.3 SSE 6 12 1009.5 - 0.0 - - 10 - - - -

Other Formats:

Comma delimited format used in spreadsheet applications
http://www.bom.gov.au/fwo/IDQ60701/IDQ60701.94170.axf

JavaScript Object Notation format (JSON) in row-major order
http://www.bom.gov.au/fwo/IDQ60701/IDQ60701.94170.json